Boeing Field King County International Airport
KBFI : now visible

Airfield :











YOU CAN JOIN US ON...

 
LOGIN :

Register | Disclaimer

   EN    FR    IT 

 









Legend :    VFR   Marginal VFR   IFR   Intensive IFR   Very Intensive IFR
Visi :
Ceiling :
>= 8 km
>= 3000ft
5 to 8 km
1000 to 3000 ft
1500m to 5 km
500 to 1000 ft
800 to 1500m
200 to 500 ft
< 800m
< 200 ft
Symbols :   Thunderstorms  Fog  Heavy snow  Heavy precipitations  Wind > 20 kt






- Airport Elevation : 21 ft
- IATA code : BFI


KBFI - Boeing Field King County International

CURRENT METAR :
  • 060253Z 31005KT 10SM BKN070 OVC090 09/02 A2966 RMK AO2 SLP044 T00940017 51011

EXPIRED METARs :
  • 060153Z 36007KT 310V030 10SM BKN070 OVC090 10/01 A2966 RMK AO2 SLP042 T01000011
  • 060053Z 33007G14KT 10SM OVC070 11/00 A2964 RMK AO2 SLP038 T01060000

TAF KBFI
Valid from the 06 at 00:00 until the 07 at 00:00 UTC


052322Z 0600/0624 34010KT P6SM SCT050 BKN070
FM060300 03008KT P6SM BKN070
FM060900 06004KT P6SM BKN070
FM061800 25006KT P6SM SCT070



MET'MAP, your aeronautical weather chart ! - Copyright ORBIFLY December 2007 - Disclaimer

ORBIFLY MET'MAP TEAM :

Programming & Development : Alexandra Zaïnal
Concept & original design : Baudouin d'Aumeries
Assistance for programming : Marc-Olivier Méhu
Technical & hardware support : Manuel Goepfert

Contact : metmap@orbifly.com




SOURCES & CREDITS :

   NOAA       Earth
Advisory